Terminal Aerodrome Forecast
Issued by NWS

Home | Current Version | Previous Version | Text Only | Print | Product List | Glossary Off
Versions: 1 2 3 4 5 6 7 8 9 10 11 12 13 14 15 16 17 18 19 20 21 22 23 24 25 26 27 28 29

000
FTUS43 KGRB 240525
TAFRHI
TAF
KRHI 240525Z 2406/2506 19007KT P6SM SCT070 BKN100
     FM240900 21005KT P6SM VCSH SCT025 BKN040
      TEMPO 2410/2414 3SM -TSRA BKN025CB
     FM241500 24008G15KT P6SM VCSH SCT035 BKN060
     FM242200 34005KT P6SM SCT015 BKN030=

USA.gov is the U.S. government's official web portal to all federal, state and local government web resources and services.